createdAt,value
2018-08-28T00:01:50.488Z,95280.16
2018-08-28T00:04:55.030Z,95276.95
2018-08-28T00:07:59.430Z,95274.94
2018-08-28T00:11:04.006Z,95277.94
2018-08-28T00:14:08.378Z,95279.38
2018-08-28T00:17:13.425Z,95288.34
2018-08-28T00:20:17.858Z,95277.90
2018-08-28T00:23:22.272Z,95283.37
2018-08-28T00:26:26.865Z,95273.05
2018-08-28T00:29:31.203Z,95272.62
2018-08-28T00:32:35.614Z,95275.37
2018-08-28T00:35:40.238Z,95284.47
2018-08-28T00:38:44.880Z,95298.27
2018-08-28T00:41:49.282Z,95303.36
2018-08-28T00:44:53.889Z,95305.83
2018-08-28T00:47:58.297Z,95303.25
2018-08-28T00:51:02.735Z,95311.58
2018-08-28T00:54:07.106Z,95317.62
2018-08-28T00:57:11.498Z,95313.69
2018-08-28T01:00:15.869Z,95317.86
2018-08-28T01:03:20.220Z,95312.56
2018-08-28T01:06:24.564Z,95314.72
2018-08-28T01:09:28.920Z,95320.35
2018-08-28T01:12:33.546Z,95319.70
2018-08-28T01:15:38.065Z,95321.47
2018-08-28T01:18:42.614Z,95325.48
2018-08-28T01:21:46.972Z,95323.38
2018-08-28T01:24:52.286Z,95327.39
2018-08-28T01:27:56.660Z,95321.52
2018-08-28T01:31:01.069Z,95323.13
2018-08-28T01:34:05.536Z,95323.48
2018-08-28T01:37:09.925Z,95323.48
2018-08-28T01:40:14.294Z,95322.48
2018-08-28T01:43:24.643Z,95322.63
2018-08-28T01:46:29.266Z,95320.23
2018-08-28T01:49:33.649Z,95318.09
2018-08-28T01:52:38.010Z,95319.67
2018-08-28T01:55:42.746Z,95322.70
2018-08-28T01:58:47.093Z,95316.71
2018-08-28T02:01:51.452Z,95312.05
2018-08-28T02:04:55.884Z,95308.77
2018-08-28T02:08:00.231Z,95301.14
2018-08-28T02:11:04.615Z,95306.83
2018-08-28T02:14:09.010Z,95315.84
2018-08-28T02:17:13.385Z,95315.28
2018-08-28T02:20:17.749Z,95305.58
2018-08-28T02:23:22.132Z,95306.89
2018-08-28T02:26:26.533Z,95308.70
2018-08-28T02:29:30.918Z,95304.72
2018-08-28T02:32:35.356Z,95304.43
2018-08-28T02:35:39.734Z,95308.78
2018-08-28T02:38:44.127Z,95303.19
2018-08-28T02:41:48.486Z,95304.75
2018-08-28T02:44:53.520Z,95308.98
2018-08-28T02:47:57.893Z,95309.91
2018-08-28T02:51:02.257Z,95309.91
2018-08-28T02:54:06.946Z,95316.32
2018-08-28T02:57:11.317Z,95313.30
2018-08-28T03:00:15.675Z,95318.97
2018-08-28T03:03:20.385Z,95322.70
2018-08-28T03:06:25.034Z,95318.96
2018-08-28T03:09:29.460Z,95317.24
2018-08-28T03:12:33.821Z,95319.36
2018-08-28T03:15:38.399Z,95317.19
2018-08-28T03:18:43.947Z,95323.31
2018-08-28T03:21:48.391Z,95318.80
2018-08-28T03:24:52.813Z,95322.91
2018-08-28T03:27:57.316Z,95320.28
2018-08-28T03:31:01.813Z,95323.47
2018-08-28T03:34:06.254Z,95320.59
2018-08-28T03:37:10.720Z,95319.46
2018-08-28T03:40:15.068Z,95326.99
2018-08-28T03:43:19.863Z,95322.39
2018-08-28T03:46:24.441Z,95321.67
2018-08-28T03:49:28.843Z,95315.11
2018-08-28T03:52:33.423Z,95323.77
2018-08-28T03:55:37.833Z,95317.25
2018-08-28T03:58:42.603Z,95324.05
2018-08-28T04:01:46.994Z,95329.84
2018-08-28T04:04:51.909Z,95325.09
2018-08-28T04:07:56.375Z,95332.72
2018-08-28T04:11:01.230Z,95325.41
2018-08-28T04:14:05.618Z,95339.59
2018-08-28T04:17:10.524Z,95342.03
2018-08-28T04:20:14.896Z,95343.27
2018-08-28T04:23:20.185Z,95339.92
2018-08-28T04:26:25.395Z,95342.83
2018-08-28T04:29:30.037Z,95342.95
2018-08-28T04:32:34.553Z,95344.65
2018-08-28T04:35:39.197Z,95343.91
2018-08-28T04:38:43.650Z,95348.95
2018-08-28T04:41:48.223Z,95351.70
2018-08-28T04:44:52.653Z,95351.32
2018-08-28T04:47:57.140Z,95355.13
2018-08-28T04:51:01.686Z,95357.00
2018-08-28T04:54:06.590Z,95359.91
2018-08-28T04:57:11.231Z,95348.89
2018-08-28T05:00:15.754Z,95358.13
2018-08-28T05:03:20.155Z,95359.59
2018-08-28T05:06:24.545Z,95360.25
2018-08-28T05:09:29.203Z,95367.43
2018-08-28T05:12:33.619Z,95361.41
2018-08-28T05:15:38.069Z,95364.95
2018-08-28T05:18:42.411Z,95370.62
2018-08-28T05:21:46.814Z,95376.26
2018-08-28T05:24:51.458Z,95365.69
2018-08-28T05:27:55.910Z,95359.99
2018-08-28T05:31:00.391Z,95357.73
2018-08-28T05:34:05.284Z,95360.28
2018-08-28T05:37:09.662Z,95372.62
2018-08-28T05:40:14.106Z,95369.07
2018-08-28T05:43:18.543Z,95375.84
2018-08-28T05:46:23.028Z,95374.53
2018-08-28T05:49:27.513Z,95375.66
2018-08-28T05:52:31.968Z,95380.59
2018-08-28T05:55:37.063Z,95380.64
2018-08-28T05:58:41.650Z,95373.44
2018-08-28T06:01:46.256Z,95377.50
2018-08-28T06:04:50.703Z,95382.22
2018-08-28T06:07:55.128Z,95387.72
2018-08-28T06:10:59.698Z,95382.08
2018-08-28T06:14:04.303Z,95386.16
2018-08-28T06:17:08.773Z,95382.01
2018-08-28T06:20:13.343Z,95377.95
2018-08-28T06:23:18.603Z,95386.20
2018-08-28T06:26:23.636Z,95384.22
2018-08-28T06:29:28.042Z,95377.02
2018-08-28T06:32:32.997Z,95386.30
2018-08-28T06:35:37.459Z,95382.36
2018-08-28T06:38:41.848Z,95383.72
2018-08-28T06:41:46.333Z,95381.66
2018-08-28T06:44:51.116Z,95382.61
2018-08-28T06:47:55.591Z,95386.92
2018-08-28T06:51:00.084Z,95385.59
2018-08-28T06:54:04.481Z,95379.68
2018-08-28T06:57:09.006Z,95381.58
2018-08-28T07:00:13.434Z,95380.72
2018-08-28T07:03:17.854Z,95378.41
2018-08-28T07:06:22.292Z,95385.97
2018-08-28T07:09:26.661Z,95383.30
2018-08-28T07:12:31.645Z,95384.90
2018-08-28T07:15:36.372Z,95383.46
2018-08-28T07:18:40.962Z,95389.87
2018-08-28T07:21:45.430Z,95382.73
2018-08-28T07:24:49.968Z,95375.17
2018-08-28T07:27:54.345Z,95377.08
2018-08-28T07:30:58.745Z,95380.48
2018-08-28T07:34:03.366Z,95376.66
2018-08-28T07:38:11.162Z,95377.86
2018-08-28T07:41:15.655Z,95380.41
2018-08-28T07:44:20.213Z,95379.50
2018-08-28T07:47:24.744Z,95377.39
2018-08-28T07:50:29.130Z,95376.40
2018-08-28T07:53:33.611Z,95380.66
2018-08-28T07:56:39.153Z,95380.45
2018-08-28T07:59:43.697Z,95385.00
2018-08-28T08:02:48.127Z,95390.03
2018-08-28T08:05:54.942Z,95395.09
2018-08-28T08:08:59.833Z,95394.77
2018-08-28T08:12:04.319Z,95393.67
2018-08-28T08:15:08.805Z,95395.53
2018-08-28T08:18:13.270Z,95393.79
2018-08-28T08:21:17.813Z,95397.05
2018-08-28T08:24:22.267Z,95392.25
2018-08-28T08:27:26.675Z,95389.63
2018-08-28T08:30:31.393Z,95388.53
2018-08-28T08:33:35.970Z,95389.19
2018-08-28T08:36:40.388Z,95392.17
2018-08-28T08:39:44.816Z,95393.25
2018-08-28T08:42:49.665Z,95397.36
2018-08-28T08:45:54.038Z,95390.73
2018-08-28T08:48:58.453Z,95383.84
2018-08-28T08:52:03.048Z,95390.14
2018-08-28T08:55:07.469Z,95381.59
2018-08-28T08:58:12.091Z,95387.42
2018-08-28T09:01:16.900Z,95385.61
2018-08-28T09:04:21.326Z,95383.27
2018-08-28T09:07:26.040Z,95383.19
2018-08-28T09:10:30.404Z,95374.78
2018-08-28T09:13:35.097Z,95380.01
2018-08-28T09:16:41.112Z,95375.27
2018-08-28T09:19:45.785Z,95372.72
2018-08-28T09:22:50.213Z,95367.47
2018-08-28T09:25:54.613Z,95364.22
2018-08-28T09:28:59.022Z,95364.89
2018-08-28T09:32:04.274Z,95362.47
2018-08-28T09:35:08.691Z,95373.92
2018-08-28T09:38:13.164Z,95370.59
2018-08-28T09:41:17.515Z,95362.80
2018-08-28T09:44:21.893Z,95361.05
2018-08-28T09:47:26.358Z,95369.19
2018-08-28T09:50:30.731Z,95368.37
2018-08-28T09:53:35.149Z,95362.81
2018-08-28T09:56:39.566Z,95355.77
2018-08-28T09:59:44.362Z,95348.23
2018-08-28T10:02:48.932Z,95356.17
2018-08-28T10:05:53.377Z,95351.67
2018-08-28T10:08:57.904Z,95349.97
2018-08-28T10:12:02.289Z,95346.75
2018-08-28T10:15:07.561Z,95347.97
2018-08-28T10:18:12.067Z,95344.41
2018-08-28T10:21:16.506Z,95341.43
2018-08-28T10:24:21.109Z,95340.56
2018-08-28T10:27:25.575Z,95337.34
2018-08-28T10:30:30.082Z,95334.38
2018-08-28T10:33:34.445Z,95336.75
2018-08-28T10:36:38.807Z,95332.16
2018-08-28T10:39:43.772Z,95332.72
2018-08-28T10:42:48.175Z,95330.37
2018-08-28T10:45:52.709Z,95326.77
2018-08-28T10:48:57.536Z,95327.03
2018-08-28T10:52:07.349Z,95329.98
2018-08-28T10:55:11.885Z,95315.73
2018-08-28T10:58:16.374Z,95319.17
2018-08-28T11:01:20.861Z,95320.25
2018-08-28T11:04:25.533Z,95319.31
2018-08-28T11:07:29.901Z,95321.28
2018-08-28T11:10:34.582Z,95323.94
2018-08-28T11:13:39.005Z,95315.06
2018-08-28T11:16:44.255Z,95310.75
2018-08-28T11:19:48.823Z,95307.31
2018-08-28T11:22:53.340Z,95310.04
2018-08-28T11:25:57.734Z,95308.61
2018-08-28T11:29:02.413Z,95305.30
2018-08-28T11:32:07.015Z,95299.72
2018-08-28T11:35:11.570Z,95299.63
2018-08-28T11:38:16.227Z,95299.56
2018-08-28T11:41:20.636Z,95293.84
2018-08-28T11:44:25.061Z,95294.14
2018-08-28T11:47:29.446Z,95280.85
2018-08-28T11:50:34.045Z,95285.65
2018-08-28T11:53:38.441Z,95283.22
2018-08-28T11:56:42.919Z,95291.37
2018-08-28T11:59:47.466Z,95284.31
2018-08-28T12:02:51.942Z,95283.91
2018-08-28T12:05:56.514Z,95284.27
2018-08-28T12:09:00.907Z,95280.67
2018-08-28T12:12:05.902Z,95277.91
2018-08-28T12:15:10.397Z,95274.08
2018-08-28T12:18:14.770Z,95269.50
2018-08-28T12:21:19.240Z,95256.83
2018-08-28T12:24:23.594Z,95253.00
2018-08-28T12:27:28.022Z,95254.44
2018-08-28T12:30:32.532Z,95249.77
2018-08-28T12:33:36.937Z,95247.59
2018-08-28T12:36:41.350Z,95244.11
2018-08-28T12:39:45.912Z,95239.10
2018-08-28T12:42:50.355Z,95238.48
2018-08-28T12:45:54.809Z,95229.17
2018-08-28T12:48:59.193Z,95231.26
2018-08-28T12:52:03.969Z,95226.57
2018-08-28T12:55:08.456Z,95224.73
2018-08-28T12:58:13.005Z,95218.83
2018-08-28T13:01:17.432Z,95211.94
2018-08-28T13:04:22.139Z,95205.88
2018-08-28T13:07:26.649Z,95209.64
2018-08-28T13:10:31.055Z,95210.16
2018-08-28T13:13:35.481Z,95204.73
2018-08-28T13:16:40.042Z,95206.66
2018-08-28T13:19:44.572Z,95207.67
2018-08-28T13:22:51.148Z,95205.38
2018-08-28T13:25:55.608Z,95201.55
2018-08-28T13:28:59.986Z,95203.27
2018-08-28T13:32:05.721Z,95204.02
2018-08-28T13:35:10.506Z,95203.31
2018-08-28T13:38:14.889Z,95197.39
2018-08-28T13:41:19.358Z,95195.52
2018-08-28T13:44:23.815Z,95199.42
2018-08-28T13:47:28.227Z,95198.91
2018-08-28T13:50:32.744Z,95194.88
2018-08-28T13:53:37.143Z,95194.27
2018-08-28T13:56:41.478Z,95189.59
2018-08-28T13:59:45.979Z,95188.85
2018-08-28T14:02:50.818Z,95189.89
2018-08-28T14:05:55.383Z,95186.87
2018-08-28T14:08:59.995Z,95184.72
2018-08-28T14:12:04.957Z,95183.27
2018-08-28T14:15:09.650Z,95178.34
2018-08-28T14:18:14.061Z,95177.66
2018-08-28T14:21:18.626Z,95175.13
2018-08-28T14:24:23.273Z,95177.52
2018-08-28T14:27:27.693Z,95170.66
2018-08-28T14:30:32.110Z,95168.96
2018-08-28T14:33:36.495Z,95166.92
2018-08-28T14:36:40.925Z,95167.86
2018-08-28T14:39:45.591Z,95167.69
2018-08-28T14:42:49.985Z,95167.68
2018-08-28T14:45:54.412Z,95163.28
2018-08-28T14:48:58.793Z,95161.24
2018-08-28T14:52:03.275Z,95158.22
2018-08-28T14:55:07.690Z,95161.23
2018-08-28T14:58:12.150Z,95158.55
2018-08-28T15:01:16.590Z,95162.86
2018-08-28T15:04:21.600Z,95152.30
2018-08-28T15:07:26.257Z,95157.84
2018-08-28T15:10:30.703Z,95158.67
2018-08-28T15:13:35.243Z,95155.73
2018-08-28T15:16:39.705Z,95158.72
2018-08-28T15:19:44.393Z,95159.75
2018-08-28T15:22:48.829Z,95160.25
2018-08-28T15:25:53.275Z,95157.41
2018-08-28T15:28:57.712Z,95160.90
2018-08-28T15:32:02.233Z,95158.54
2018-08-28T15:35:07.052Z,95155.79
2018-08-28T15:38:11.614Z,95150.06
2018-08-28T15:41:16.074Z,95148.27
2018-08-28T15:44:20.579Z,95147.31
2018-08-28T15:47:25.192Z,95149.76
2018-08-28T15:50:29.833Z,95150.77
2018-08-28T15:53:34.357Z,95153.22
2018-08-28T15:56:38.893Z,95146.48
2018-08-28T15:59:43.400Z,95152.91
2018-08-28T16:02:47.837Z,95149.86
2018-08-28T16:05:52.239Z,95153.24
2018-08-28T16:08:56.658Z,95150.99
2018-08-28T16:12:01.134Z,95148.56
2018-08-28T16:15:05.869Z,95148.80
2018-08-28T16:18:10.535Z,95145.18
2018-08-28T16:21:14.810Z,95144.13
2018-08-28T16:24:19.229Z,95145.56
2018-08-28T16:27:23.709Z,95147.39
2018-08-28T16:30:28.959Z,95146.98
2018-08-28T16:33:33.675Z,95151.33
2018-08-28T16:36:38.539Z,95150.92
2018-08-28T16:39:42.959Z,95149.97
2018-08-28T16:42:48.461Z,95144.67
2018-08-28T16:45:52.905Z,95144.38
2018-08-28T16:48:57.430Z,95139.23
2018-08-28T16:52:02.212Z,95135.59
2018-08-28T16:55:06.642Z,95131.46
2018-08-28T16:58:11.319Z,95131.98
2018-08-28T17:01:15.986Z,95135.22
2018-08-28T17:04:20.628Z,95127.97
2018-08-28T17:07:28.315Z,95133.14
2018-08-28T17:10:33.031Z,95129.69
2018-08-28T17:13:38.162Z,95133.55
2018-08-28T17:16:42.709Z,95135.09
2018-08-28T17:19:47.157Z,95141.75
2018-08-28T17:22:51.642Z,95135.52
2018-08-28T17:25:56.835Z,95141.80
2018-08-28T17:29:01.299Z,95135.81
2018-08-28T17:32:05.965Z,95133.71
2018-08-28T17:35:10.982Z,95128.91
2018-08-28T17:38:15.482Z,95137.35
2018-08-28T17:41:19.897Z,95140.66
2018-08-28T17:44:24.425Z,95142.02
2018-08-28T17:47:29.146Z,95137.83
2018-08-28T17:50:33.561Z,95144.14
2018-08-28T17:53:37.967Z,95149.61
2018-08-28T17:56:44.808Z,95150.50
2018-08-28T17:59:49.427Z,95154.39
2018-08-28T18:02:54.079Z,95155.41
2018-08-28T18:05:58.658Z,95153.11
2018-08-28T18:09:03.347Z,95150.39
2018-08-28T18:12:08.393Z,95145.34
2018-08-28T18:15:12.975Z,95156.48
2018-08-28T18:18:17.613Z,95156.45
2018-08-28T18:21:22.107Z,95152.95
2018-08-28T18:24:27.102Z,95159.66
2018-08-28T18:27:31.821Z,95156.31
2018-08-28T18:30:36.450Z,95160.63
2018-08-28T18:33:40.938Z,95159.02
2018-08-28T18:36:45.450Z,95162.27
2018-08-28T18:39:50.067Z,95169.89
2018-08-28T18:42:55.242Z,95178.05
2018-08-28T18:45:59.741Z,95177.98
2018-08-28T18:49:04.273Z,95180.54
2018-08-28T18:52:08.932Z,95179.09
2018-08-28T18:55:13.454Z,95181.16
2018-08-28T18:58:18.002Z,95178.19
2018-08-28T19:01:22.459Z,95184.84
2018-08-28T19:04:33.617Z,95184.36
2018-08-28T19:07:38.498Z,95179.85
2018-08-28T19:10:43.140Z,95180.71
2018-08-28T19:13:48.020Z,95172.17
2018-08-28T19:16:52.579Z,95173.08
2018-08-28T19:19:56.998Z,95172.51
2018-08-28T19:23:02.615Z,95168.63
2018-08-28T19:26:07.190Z,95166.23
2018-08-28T19:29:11.821Z,95171.53
2018-08-28T19:32:16.432Z,95168.86
2018-08-28T19:35:20.990Z,95171.27
2018-08-28T19:38:25.800Z,95164.45
2018-08-28T19:41:30.218Z,95170.23
2018-08-28T19:44:34.682Z,95176.50
2018-08-28T19:47:39.338Z,95174.98
2018-08-28T19:50:43.773Z,95177.09
2018-08-28T19:53:48.585Z,95176.78
2018-08-28T19:56:53.061Z,95175.53
2018-08-28T19:59:57.519Z,95174.52
2018-08-28T20:03:02.179Z,95167.50
2018-08-28T20:06:06.678Z,95173.39
2018-08-28T20:09:11.123Z,95175.19
2018-08-28T20:12:17.111Z,95175.30
2018-08-28T20:15:21.580Z,95173.80
2018-08-28T20:18:26.252Z,95166.63
2018-08-28T20:21:31.125Z,95165.54
2018-08-28T20:24:35.641Z,95162.96
2018-08-28T20:27:40.263Z,95166.16
2018-08-28T20:30:44.892Z,95166.27
2018-08-28T20:33:49.304Z,95160.83
2018-08-28T20:36:53.788Z,95168.05
2018-08-28T20:39:58.387Z,95162.20
2018-08-28T20:43:03.137Z,95166.73
2018-08-28T20:46:07.694Z,95162.03
2018-08-28T20:49:12.147Z,95164.02
2018-08-28T20:52:16.691Z,95158.85
2018-08-28T20:55:21.195Z,95162.26
2018-08-28T20:58:25.608Z,95158.39
2018-08-28T21:01:29.967Z,95157.14
2018-08-28T21:04:34.554Z,95156.88
2018-08-28T21:07:39.137Z,95149.62
2018-08-28T21:10:43.688Z,95150.38
2018-08-28T21:13:48.108Z,95146.15
2018-08-28T21:16:52.698Z,95151.23
2018-08-28T21:19:57.134Z,95146.95
2018-08-28T21:23:01.785Z,95140.83
2018-08-28T21:26:06.829Z,95144.98
2018-08-28T21:29:11.440Z,95134.35
2018-08-28T21:32:15.887Z,95131.46
2018-08-28T21:35:20.368Z,95132.66
2018-08-28T21:38:24.947Z,95127.95
2018-08-28T21:41:29.624Z,95128.21
2018-08-28T21:44:34.581Z,95120.70
2018-08-28T21:47:38.990Z,95123.87
2018-08-28T21:50:43.449Z,95121.98
2018-08-28T21:53:47.938Z,95122.23
2018-08-28T21:56:52.382Z,95121.97
2018-08-28T21:59:56.833Z,95117.09
2018-08-28T22:03:01.246Z,95110.13
2018-08-28T22:06:17.707Z,95105.02
2018-08-28T22:09:22.358Z,95096.56
2018-08-28T22:12:26.818Z,95093.61
2018-08-28T22:15:31.368Z,95092.37
2018-08-28T22:18:35.799Z,95088.88
2018-08-28T22:21:40.270Z,95090.19
2018-08-28T22:24:44.785Z,95085.55
2018-08-28T22:27:49.309Z,95089.47
2018-08-28T22:30:53.718Z,95090.72
2018-08-28T22:33:58.679Z,95088.98
2018-08-28T22:37:03.090Z,95082.30
2018-08-28T22:40:11.086Z,95081.95
2018-08-28T22:43:19.537Z,95080.99
2018-08-28T22:46:23.993Z,95073.11
2018-08-28T22:49:28.695Z,95072.80
2018-08-28T22:52:33.122Z,95069.97
2018-08-28T22:55:37.787Z,95067.80
2018-08-28T22:58:42.874Z,95069.47
2018-08-28T23:01:47.651Z,95064.07
2018-08-28T23:04:52.150Z,95067.80
2018-08-28T23:07:56.647Z,95062.17
2018-08-28T23:11:01.360Z,95062.08
2018-08-28T23:14:06.107Z,95055.95
2018-08-28T23:17:10.553Z,95050.67
2018-08-28T23:20:14.905Z,95052.63
2018-08-28T23:23:19.459Z,95058.42
2018-08-28T23:26:23.817Z,95044.45
2018-08-28T23:29:28.183Z,95043.34
2018-08-28T23:32:32.532Z,95039.36
2018-08-28T23:35:37.035Z,95035.17
2018-08-28T23:38:41.592Z,95043.86
2018-08-28T23:41:46.329Z,95036.19
2018-08-28T23:44:50.715Z,95027.41
2018-08-28T23:47:55.149Z,95032.45
2018-08-28T23:50:59.710Z,95033.91
2018-08-28T23:54:04.330Z,95030.80
2018-08-28T23:57:09.154Z,95020.84
